Time;durP1;ratioP1;P1;durP2;ratioP2;P2;SDS_P1;SDS_P2;PMS_P1;PMS_P2;Temp;Humidity;BMP_temperature;BMP_pressure;BME280_temperature;BME280_humidity;BME280_pressure;Samples;Min_cycle;Max_cycle;Signal;HPM_P1;HPM_P2
2022/06/20 00:00:58;;;;;;;5.10;1.73;;;13.30;99.90;;;;;;5011596;28;20075;-93
2022/06/20 00:03:35;;;;;;;7.35;1.63;;;13.20;99.90;;;;;;5027756;28;20044;-93
2022/06/20 00:06:01;;;;;;;6.57;1.83;;;13.20;99.90;;;;;;5028876;28;20127;-93
2022/06/20 00:08:27;;;;;;;7.68;1.85;;;13.20;99.90;;;;;;5026800;28;20086;-93
2022/06/20 00:10:52;;;;;;;5.57;1.55;;;13.20;99.90;;;;;;5044734;28;20091;-93
2022/06/20 00:13:28;;;;;;;5.13;2.22;;;13.20;99.90;;;;;;5046769;28;20048;-91
2022/06/20 00:15:55;;;;;;;9.48;1.75;;;13.20;99.90;;;;;;5012218;28;20186;-93
2022/06/20 00:18:21;;;;;;;6.00;1.98;;;13.10;99.90;;;;;;5010079;28;20044;-94
2022/06/20 00:20:47;;;;;;;8.07;2.15;;;13.20;99.90;;;;;;5046029;28;20053;-92
2022/06/20 00:23:12;;;;;;;11.40;2.35;;;13.00;99.90;;;;;;5049637;28;20049;-93
2022/06/20 00:25:38;;;;;;;4.85;1.65;;;13.00;99.90;;;;;;5030988;28;20055;-94
2022/06/20 00:28:04;;;;;;;5.97;2.05;;;12.90;99.90;;;;;;5034193;28;20041;-92
2022/06/20 00:30:30;;;;;;;9.50;2.17;;;12.90;99.90;;;;;;5013570;28;20044;-93
2022/06/20 00:32:55;;;;;;;10.15;2.30;;;13.00;99.90;;;;;;5012090;28;20079;-92
2022/06/20 00:35:21;;;;;;;6.78;1.88;;;13.00;99.90;;;;;;5010387;28;20094;-91
2022/06/20 00:37:47;;;;;;;4.95;2.15;;;13.00;99.90;;;;;;5026968;28;20059;-93
2022/06/20 00:40:20;;;;;;;7.93;2.20;;;13.00;99.90;;;;;;5027493;28;20044;-92
2022/06/20 00:42:46;;;;;;;11.32;2.55;;;13.00;99.90;;;;;;5028305;28;20381;-94
2022/06/20 00:45:11;;;;;;;8.55;2.10;;;13.10;99.90;;;;;;5029850;28;20112;-91
2022/06/20 00:47:37;;;;;;;8.30;2.45;;;13.10;99.90;;;;;;5046387;28;20357;-93
2022/06/20 00:50:09;;;;;;;9.90;2.38;;;13.10;99.90;;;;;;5028516;28;20041;-92
2022/06/20 00:53:02;;;;;;;14.45;2.78;;;13.10;99.90;;;;;;5013455;28;20488;-93
2022/06/20 00:55:46;;;;;;;7.60;2.30;;;13.20;99.90;;;;;;5029121;28;20055;-94
2022/06/20 00:58:17;;;;;;;8.50;2.28;;;13.20;99.90;;;;;;5026387;28;20496;-91
2022/06/20 01:00:42;;;;;;;6.40;2.15;;;13.20;99.90;;;;;;5027983;28;20044;-94
2022/06/20 01:03:13;;;;;;;9.75;2.60;;;13.20;99.90;;;;;;5027665;28;20040;-95
2022/06/20 01:05:41;;;;;;;8.23;2.22;;;13.30;99.90;;;;;;5030163;28;20054;-91
2022/06/20 01:08:18;;;;;;;5.80;2.20;;;13.20;99.90;;;;;;5044419;28;20051;-92
2022/06/20 01:10:48;;;;;;;9.15;2.50;;;13.30;99.90;;;;;;5029764;28;20040;-93
2022/06/20 01:13:16;;;;;;;9.50;2.60;;;13.20;99.90;;;;;;5047514;28;20049;-93
2022/06/20 01:15:42;;;;;;;7.03;2.42;;;13.20;99.90;;;;;;5027407;28;20496;-91
2022/06/20 01:18:25;;;;;;;7.47;2.60;;;13.20;99.90;;;;;;5009301;28;20107;-92
2022/06/20 01:20:52;;;;;;;5.85;2.50;;;13.20;99.90;;;;;;5029116;28;20097;-93
2022/06/20 01:23:40;;;;;;;7.65;2.40;;;13.20;99.90;;;;;;5027613;28;20072;-93
2022/06/20 01:26:17;;;;;;;9.30;2.63;;;13.20;99.90;;;;;;5043885;28;20052;-93
2022/06/20 01:28:45;;;;;;;9.27;2.42;;;13.20;99.90;;;;;;5061165;28;20047;-91
2022/06/20 01:31:10;;;;;;;6.85;2.33;;;13.20;99.90;;;;;;5030275;28;20075;-91
2022/06/20 01:33:36;;;;;;;9.50;3.22;;;13.10;99.90;;;;;;5030891;28;20139;-91
2022/06/20 01:38:46;;;;;;;7.53;2.70;;;13.10;99.90;;;;;;5070030;28;20045;-92
2022/06/20 01:44:06;;;;;;;;;;;13.00;99.90;;;;;;5003205;28;20060;-91
2022/06/20 01:46:33;;;;;;;7.75;2.60;;;13.00;99.90;;;;;;5036332;28;19960;-91
2022/06/20 01:49:03;;;;;;;10.18;2.58;;;12.90;99.90;;;;;;5051593;28;20048;-93
2022/06/20 01:51:45;;;;;;;8.77;2.70;;;12.90;99.90;;;;;;5034614;28;20052;-92
2022/06/20 01:54:11;;;;;;;8.57;2.90;;;12.80;99.90;;;;;;5036527;28;20053;-90
2022/06/20 01:56:37;;;;;;;9.18;2.88;;;12.80;99.90;;;;;;5064890;28;20052;-93
2022/06/20 01:59:06;;;;;;;11.68;3.50;;;12.70;99.90;;;;;;5049362;28;20044;-91
2022/06/20 02:01:33;;;;;;;11.82;3.05;;;12.70;99.90;;;;;;5048738;28;20066;-92
2022/06/20 02:03:59;;;;;;;7.60;3.25;;;12.60;99.90;;;;;;5027595;28;20041;-91
2022/06/20 02:06:24;;;;;;;9.32;3.55;;;12.60;99.90;;;;;;5011471;28;20451;-93
2022/06/20 02:08:52;;;;;;;9.13;2.83;;;12.60;99.90;;;;;;5029915;28;20041;-91
2022/06/20 02:11:21;;;;;;;12.15;3.30;;;12.60;99.90;;;;;;5030737;28;20049;-94
2022/06/20 02:13:50;;;;;;;13.52;3.47;;;12.60;99.90;;;;;;5031471;28;20049;-91
2022/06/20 02:16:17;;;;;;;11.85;3.30;;;12.50;99.90;;;;;;5030846;28;20044;-92
2022/06/20 02:18:44;;;;;;;10.40;3.33;;;12.50;99.90;;;;;;5028669;28;20067;-91
2022/06/20 02:21:15;;;;;;;8.82;3.20;;;12.50;99.90;;;;;;5028846;28;20066;-92
2022/06/20 02:23:45;;;;;;;6.65;3.47;;;12.40;99.90;;;;;;5010568;28;20080;-92
2022/06/20 02:26:10;;;;;;;10.00;3.03;;;12.40;99.90;;;;;;5026320;28;20143;-89
2022/06/20 02:28:43;;;;;;;10.93;3.60;;;12.40;99.90;;;;;;5025271;28;20048;-92
2022/06/20 02:31:09;;;;;;;11.80;3.40;;;12.30;99.90;;;;;;5024631;28;20546;-91
2022/06/20 02:33:35;;;;;;;8.60;3.90;;;12.30;99.90;;;;;;5008094;28;20056;-93
2022/06/20 02:36:01;;;;;;;12.32;3.22;;;12.20;99.90;;;;;;5008670;28;20047;-92
2022/06/20 02:38:27;;;;;;;14.70;4.10;;;12.10;99.90;;;;;;5023936;28;20067;-91
2022/06/20 02:40:55;;;;;;;10.40;3.30;;;12.10;99.90;;;;;;5023069;28;20053;-90
2022/06/20 02:43:29;;;;;;;9.85;3.30;;;12.00;99.90;;;;;;5022888;28;20045;-90
2022/06/20 02:45:55;;;;;;;14.77;3.53;;;12.00;99.90;;;;;;5038391;28;20057;-91
2022/06/20 02:48:21;;;;;;;9.50;3.15;;;11.90;99.90;;;;;;5040154;28;20052;-90
2022/06/20 02:50:50;;;;;;;10.27;3.10;;;11.90;99.90;;;;;;5023133;28;20036;-91
2022/06/20 02:53:18;;;;;;;9.75;3.78;;;11.80;99.90;;;;;;5024586;28;20508;-91
2022/06/20 02:55:43;;;;;;;8.00;3.13;;;11.80;99.90;;;;;;5040024;28;20135;-89
2022/06/20 02:58:15;;;;;;;8.40;3.35;;;11.70;99.90;;;;;;5023518;28;20072;-91
2022/06/20 03:00:51;;;;;;;7.53;3.67;;;11.70;99.90;;;;;;5024316;28;20128;-91
2022/06/20 03:03:29;;;;;;;10.13;3.25;;;11.60;99.90;;;;;;5027447;28;20080;-91
2022/06/20 03:05:55;;;;;;;10.95;3.28;;;11.60;99.90;;;;;;5026597;28;20669;-89
2022/06/20 03:08:21;;;;;;;8.55;3.33;;;11.50;99.90;;;;;;5024144;28;20054;-90
2022/06/20 03:10:47;;;;;;;9.00;3.42;;;11.50;99.90;;;;;;5023944;28;20044;-90
2022/06/20 03:13:13;;;;;;;8.95;3.50;;;11.50;99.90;;;;;;5039347;28;20048;-90
2022/06/20 03:15:39;;;;;;;9.65;3.58;;;11.50;99.90;;;;;;5039591;28;20040;-90
2022/06/20 03:18:05;;;;;;;10.90;3.97;;;11.40;99.90;;;;;;5033259;28;20086;-88
2022/06/20 03:20:31;;;;;;;6.78;3.15;;;11.40;99.90;;;;;;5028077;28;20028;-90
2022/06/20 03:23:05;;;;;;;9.73;3.53;;;11.40;99.90;;;;;;5028574;28;20043;-88
2022/06/20 03:25:31;;;;;;;10.07;3.45;;;11.40;99.90;;;;;;5044550;28;20052;-87
2022/06/20 03:27:57;;;;;;;8.18;3.30;;;12.10;99.90;;;;;;5026977;28;20096;-90
2022/06/20 03:30:28;;;;;;;9.20;2.95;;;11.30;99.90;;;;;;5017237;28;20041;-91
2022/06/20 03:32:54;;;;;;;9.75;3.40;;;11.30;99.90;;;;;;5025052;28;20064;-90
2022/06/20 03:35:20;;;;;;;12.10;3.40;;;11.30;99.90;;;;;;5042224;28;20404;-90
2022/06/20 03:37:46;;;;;;;9.15;3.25;;;11.40;99.90;;;;;;5027379;28;20048;-89
2022/06/20 03:40:11;;;;;;;7.47;3.25;;;11.40;99.90;;;;;;5030873;28;20068;-88
2022/06/20 03:42:37;;;;;;;8.90;3.53;;;11.40;99.90;;;;;;5047615;28;20183;-90
2022/06/20 03:45:04;;;;;;;8.10;2.92;;;11.50;99.90;;;;;;5045944;28;20044;-90
2022/06/20 03:47:39;;;;;;;8.65;3.17;;;11.70;99.90;;;;;;5027029;28;20052;-86
2022/06/20 03:50:10;;;;;;;6.75;2.90;;;11.80;99.90;;;;;;5018498;28;20041;-89
2022/06/20 03:52:43;;;;;;;11.63;2.97;;;11.80;99.90;;;;;;5012913;28;20055;-87
2022/06/20 03:55:11;;;;;;;8.35;3.33;;;11.80;99.90;;;;;;5029153;28;20582;-89
2022/06/20 03:57:43;;;;;;;9.15;2.90;;;11.90;99.90;;;;;;5031061;28;20134;-90
2022/06/20 04:00:14;;;;;;;5.75;2.75;;;11.90;99.90;;;;;;5030806;28;20098;-89
2022/06/20 04:02:48;;;;;;;8.77;3.00;;;11.90;99.90;;;;;;5012081;28;20423;-87
2022/06/20 04:05:40;;;;;;;;;;;11.90;99.90;;;;;;5032311;28;20045;-89
2022/06/20 04:08:10;;;;;;;7.22;3.00;;;11.80;99.90;;;;;;5044741;28;19924;-89
2022/06/20 04:10:58;;;;;;;8.20;2.85;;;11.90;99.90;;;;;;4998307;28;20049;-87
2022/06/20 04:13:32;;;;;;;7.60;3.08;;;11.90;99.90;;;;;;5034290;28;20052;-88
2022/06/20 04:16:05;;;;;;;;;;;11.90;99.90;;;;;;5030148;28;20041;-90
2022/06/20 04:18:36;;;;;;;9.73;3.30;;;12.00;99.90;;;;;;5027567;28;19920;-88
2022/06/20 04:21:13;;;;;;;8.13;3.17;;;12.10;99.90;;;;;;5021871;28;20099;-89
2022/06/20 04:23:48;;;;;;;9.07;2.92;;;12.10;99.90;;;;;;4989647;28;20056;-88
2022/06/20 04:26:31;;;;;;;7.55;3.35;;;12.10;99.90;;;;;;5007151;28;20531;-91
2022/06/20 04:29:18;;;;;;;9.85;2.97;;;12.10;99.90;;;;;;5023474;28;20052;-91
2022/06/20 04:31:53;;;;;;;12.57;3.80;;;12.10;99.90;;;;;;5020622;28;20057;-91
2022/06/20 04:34:26;;;;;;;9.38;3.20;;;12.20;99.90;;;;;;5037206;28;20060;-90
2022/06/20 04:36:56;;;;;;;8.50;3.28;;;12.30;99.90;;;;;;5020826;28;20109;-88
2022/06/20 04:39:30;;;;;;;11.82;3.75;;;12.50;99.90;;;;;;5004615;28;20140;-90
2022/06/20 04:42:17;;;;;;;8.25;2.85;;;13.10;99.90;;;;;;4988536;28;20523;-89
2022/06/20 04:44:53;;;;;;;5.55;2.63;;;14.20;99.90;;;;;;5005190;28;20071;-90
2022/06/20 04:47:24;;;;;;;8.45;2.83;;;15.10;99.90;;;;;;5022010;28;20057;-91
2022/06/20 04:49:50;;;;;;;9.57;2.80;;;16.10;99.90;;;;;;5037037;28;20059;-88
2022/06/20 04:52:23;;;;;;;8.65;2.63;;;16.90;99.90;;;;;;5003424;28;20401;-90
2022/06/20 04:54:48;;;;;;;6.15;2.42;;;17.10;99.90;;;;;;4988603;28;20052;-90
2022/06/20 04:57:14;;;;;;;6.20;2.20;;;17.20;99.90;;;;;;5004191;28;20143;-90
2022/06/20 04:59:39;;;;;;;5.18;2.47;;;17.40;99.90;;;;;;5002984;28;20051;-89
2022/06/20 05:02:07;;;;;;;7.80;2.92;;;17.80;99.90;;;;;;5004224;28;20091;-90
2022/06/20 05:04:36;;;;;;;6.30;2.35;;;17.70;99.90;;;;;;5003444;28;20143;-88
2022/06/20 05:07:05;;;;;;;7.57;2.92;;;18.00;99.90;;;;;;5019191;28;20139;-89
2022/06/20 05:09:38;;;;;;;5.25;2.03;;;18.20;99.90;;;;;;5003861;28;20036;-87
2022/06/20 05:12:09;;;;;;;;;;;18.10;99.90;;;;;;5002423;28;20041;-90
2022/06/20 05:14:53;;;;;;;5.68;2.20;;;18.30;99.90;;;;;;5003567;28;19971;-91
2022/06/20 05:17:24;;;;;;;8.70;2.63;;;18.70;99.90;;;;;;5005455;28;20105;-90
2022/06/20 05:19:52;;;;;;;6.82;2.47;;;19.20;99.90;;;;;;5003122;28;20084;-90
2022/06/20 05:22:24;;;;;;;9.13;2.30;;;18.90;99.90;;;;;;5004244;28;20091;-90
2022/06/20 05:24:50;;;;;;;6.45;2.10;;;18.90;99.90;;;;;;5052746;28;20088;-90
2022/06/20 05:27:25;;;;;;;8.25;2.75;;;19.50;99.90;;;;;;5002958;28;20534;-89
2022/06/20 05:29:52;;;;;;;6.95;2.47;;;19.10;99.90;;;;;;5019276;28;20409;-90
2022/06/20 05:32:45;;;;;;;7.45;2.45;;;19.80;99.90;;;;;;4986031;28;20094;-90
2022/06/20 05:35:23;;;;;;;7.82;2.22;;;19.50;99.90;;;;;;4991996;28;20056;-90
2022/06/20 05:37:55;;;;;;;5.72;2.22;;;19.30;99.90;;;;;;5018787;28;20678;-91
2022/06/20 05:40:33;;;;;;;8.57;2.25;;;20.10;99.90;;;;;;5002161;28;20045;-90
2022/06/20 05:42:59;;;;;;;7.53;2.60;;;20.10;99.90;;;;;;5002610;28;20102;-90
2022/06/20 05:45:25;;;;;;;7.95;2.83;;;19.80;99.90;;;;;;5052657;28;20127;-89
2022/06/20 05:47:53;;;;;;;7.63;3.00;;;19.20;99.90;;;;;;5002192;28;20494;-90
2022/06/20 05:50:33;;;;;;;5.53;2.88;;;19.40;99.90;;;;;;4986747;28;20060;-90
2022/06/20 05:53:00;;;;;;;8.82;2.85;;;19.60;99.90;;;;;;5019199;28;20080;-89
2022/06/20 05:55:28;;;;;;;8.65;2.72;;;20.80;99.90;;;;;;5001901;28;20499;-88
2022/06/20 05:57:55;;;;;;;7.68;2.45;;;20.90;99.90;;;;;;4985370;28;20060;-88
2022/06/20 06:00:32;;;;;;;7.03;2.80;;;20.30;99.90;;;;;;5001766;28;20075;-90
2022/06/20 06:03:00;;;;;;;9.05;2.33;;;20.10;99.90;;;;;;5001755;28;20415;-90
2022/06/20 06:05:34;;;;;;;8.75;2.85;;;20.50;99.90;;;;;;4986236;28;20131;-92
2022/06/20 06:08:11;;;;;;;6.25;2.85;;;20.80;99.90;;;;;;5001263;28;20056;-90
2022/06/20 06:10:46;;;;;;;7.82;3.15;;;20.70;99.90;;;;;;5003300;28;20048;-90
2022/06/20 06:13:26;;;;;;;7.70;2.78;;;21.60;99.90;;;;;;5017344;28;20056;-89
2022/06/20 06:18:55;;;;;;;8.05;2.88;;;21.40;99.90;;;;;;5020688;28;20536;-91
2022/06/20 06:21:21;;;;;;;10.20;3.20;;;21.70;99.90;;;;;;5001767;28;20048;-89
2022/06/20 06:23:46;;;;;;;6.75;2.95;;;21.50;99.90;;;;;;5017612;28;20040;-92
2022/06/20 06:26:13;;;;;;;8.60;3.40;;;22.00;99.90;;;;;;5000639;28;20048;-90
2022/06/20 06:28:39;;;;;;;10.32;3.70;;;21.20;99.90;;;;;;5002013;28;20052;-91
2022/06/20 06:31:09;;;;;;;10.02;3.40;;;21.80;99.90;;;;;;5000877;28;20044;-89
2022/06/20 06:33:39;;;;;;;7.47;3.40;;;21.70;99.90;;;;;;5001472;28;20061;-92
2022/06/20 06:36:10;;;;;;;9.85;3.03;;;21.50;99.90;;;;;;5018502;28;20480;-90
2022/06/20 06:39:01;;;;;;;9.98;3.17;;;21.50;99.90;;;;;;5001553;28;20092;-89
2022/06/20 06:41:43;;;;;;;8.63;2.65;;;21.80;99.90;;;;;;5020436;28;20236;-90
2022/06/20 06:44:27;;;;;;;11.07;3.08;;;22.60;99.90;;;;;;4985225;28;20083;-90
2022/06/20 06:46:53;;;;;;;6.47;2.38;;;23.30;99.90;;;;;;5050471;28;20397;-91
2022/06/20 06:49:44;;;;;;;8.50;2.53;;;22.00;99.90;;;;;;5000738;28;20045;-90
2022/06/20 06:52:29;;;;;;;7.32;2.80;;;21.90;99.90;;;;;;5001416;28;20051;-91
2022/06/20 06:55:03;;;;;;;8.35;3.00;;;21.50;99.90;;;;;;5016813;28;20057;-88
2022/06/20 06:57:40;;;;;;;7.10;2.60;;;21.70;99.90;;;;;;5020152;28;20049;-91
2022/06/20 07:00:06;;;;;;;9.18;3.20;;;21.40;99.90;;;;;;5010400;28;21464;-90
2022/06/20 07:02:40;;;;;;;5.72;2.60;;;21.20;99.90;;;;;;5039728;28;20041;-90
2022/06/20 07:05:19;;;;;;;7.88;2.33;;;21.50;99.90;;;;;;5026273;28;20044;-90
2022/06/20 07:07:49;;;;;;;6.45;2.60;;;21.00;99.90;;;;;;5026946;28;20141;-90
2022/06/20 07:10:23;;;;;;;7.55;2.53;;;20.10;99.90;;;;;;5026907;28;20041;-90
2022/06/20 07:12:51;;;;;;;7.80;2.72;;;19.00;99.90;;;;;;5045389;28;20041;-90
2022/06/20 07:15:19;;;;;;;7.18;2.60;;;19.10;99.90;;;;;;5032822;28;20049;-91
2022/06/20 07:17:59;;;;;;;6.25;2.60;;;19.40;99.90;;;;;;5033464;28;20549;-90
2022/06/20 07:20:28;;;;;;;5.82;2.47;;;19.10;99.90;;;;;;5032148;28;20041;-90
2022/06/20 07:22:54;;;;;;;7.72;2.95;;;19.30;99.90;;;;;;5037662;28;20052;-91
2022/06/20 07:25:25;;;;;;;6.43;2.60;;;19.60;99.90;;;;;;5020283;28;20049;-93
2022/06/20 07:28:03;;;;;;;6.38;2.90;;;18.70;99.90;;;;;;5037559;28;20163;-89
2022/06/20 07:30:32;;;;;;;8.13;3.13;;;20.00;99.90;;;;;;5021356;28;20088;-90
2022/06/20 07:33:26;;;;;;;8.65;2.63;;;20.00;99.90;;;;;;5021212;28;20073;-89
2022/06/20 07:35:55;;;;;;;5.65;2.88;;;21.30;99.90;;;;;;5037533;28;20060;-88
2022/06/20 07:38:54;;;;;;;9.60;3.20;;;21.50;99.90;;;;;;5021029;28;20048;-92
2022/06/20 07:41:22;;;;;;;5.55;2.30;;;21.80;99.90;;;;;;5016923;28;20048;-92
2022/06/20 07:44:03;;;;;;;9.73;3.00;;;20.60;99.90;;;;;;5031226;28;20113;-92
2022/06/20 07:46:41;;;;;;;6.32;2.78;;;20.00;99.90;;;;;;5024790;28;20048;-92
2022/06/20 07:49:23;;;;;;;12.65;3.38;;;19.90;99.90;;;;;;5022136;28;20135;-91
2022/06/20 07:51:49;;;;;;;7.70;2.88;;;20.50;99.90;;;;;;5006238;28;20053;-91
2022/06/20 07:54:29;;;;;;;11.77;3.05;;;21.90;99.90;;;;;;5004933;28;20045;-93
2022/06/20 07:57:05;;;;;;;8.85;2.80;;;21.50;99.90;;;;;;5006848;28;20127;-90
2022/06/20 07:59:34;;;;;;;9.25;3.20;;;22.30;99.90;;;;;;5006773;28;20481;-91
2022/06/20 08:02:06;;;;;;;7.03;2.70;;;22.20;99.90;;;;;;5013674;28;20048;-92
2022/06/20 08:04:34;;;;;;;7.50;2.78;;;22.40;99.90;;;;;;5004264;28;20117;-91
2022/06/20 08:07:05;;;;;;;7.22;2.63;;;21.80;99.90;;;;;;4988398;28;20053;-88
2022/06/20 08:10:05;;;;;;;7.28;2.50;;;21.50;99.90;;;;;;5004545;28;20424;-88
2022/06/20 08:12:36;;;;;;;9.20;2.83;;;20.70;99.90;;;;;;5020849;28;20497;-91
2022/06/20 08:15:08;;;;;;;8.02;3.35;;;20.70;99.90;;;;;;5021366;28;20056;-90
2022/06/20 08:17:33;;;;;;;7.55;2.60;;;19.80;99.90;;;;;;5003381;28;20092;-90
2022/06/20 08:19:59;;;;;;;9.95;2.72;;;19.40;99.90;;;;;;5024773;28;20083;-90
2022/06/20 08:23:00;;;;;;;12.02;3.15;;;18.90;99.90;;;;;;5027387;28;20052;-90
2022/06/20 08:25:35;;;;;;;14.45;3.17;;;19.50;99.90;;;;;;5041751;28;20082;-91
2022/06/20 08:28:16;;;;;;;8.13;3.00;;;20.90;99.90;;;;;;5009679;28;20382;-91
2022/06/20 08:30:52;;;;;;;7.13;2.15;;;21.00;99.90;;;;;;5000157;28;20048;-89
2022/06/20 08:33:21;;;;;;;8.10;2.47;;;21.70;99.90;;;;;;5024167;28;20095;-92
2022/06/20 08:35:57;;;;;;;8.40;2.20;;;21.10;99.90;;;;;;5031596;28;20078;-91
2022/06/20 08:38:42;;;;;;;6.60;2.22;;;20.80;99.90;;;;;;5026089;28;20044;-91
2022/06/20 08:41:47;;;;;;;9.88;1.98;;;20.80;99.90;;;;;;5020015;28;20067;-90
2022/06/20 08:44:38;;;;;;;5.55;1.90;;;20.40;99.90;;;;;;5030697;28;20045;-90
2022/06/20 08:47:37;;;;;;;6.75;1.88;;;20.30;99.90;;;;;;5040086;28;20203;-92
2022/06/20 08:50:27;;;;;;;6.55;1.67;;;21.50;99.90;;;;;;5045539;28;20085;-92
2022/06/20 08:53:18;;;;;;;4.90;1.30;;;21.80;99.90;;;;;;5030203;28;20507;-93
2022/06/20 08:55:58;;;;;;;7.45;1.90;;;22.00;99.90;;;;;;5036407;28;20113;-88
2022/06/20 08:58:37;;;;;;;6.82;2.13;;;22.70;99.90;;;;;;5041438;28;20095;-95
2022/06/20 09:01:15;;;;;;;4.55;1.58;;;21.80;99.90;;;;;;5045752;28;20102;-94
2022/06/20 09:03:59;;;;;;;5.03;1.38;;;21.50;99.90;;;;;;5045766;28;20040;-91
2022/06/20 09:06:27;;;;;;;;;;;22.30;99.90;;;;;;5052217;28;20164;-92
2022/06/20 09:09:30;;;;;;;5.18;1.42;;;23.40;99.90;;;;;;5044946;28;19925;-93
2022/06/20 09:12:14;;;;;;;3.20;1.20;;;24.10;99.30;;;;;;5026063;28;20133;-94
2022/06/20 09:14:51;;;;;;;2.80;1.35;;;23.90;99.50;;;;;;5029618;28;20183;-91
2022/06/20 09:17:41;;;;;;;3.90;1.30;;;21.50;99.00;;;;;;5013009;28;20047;-91
2022/06/20 09:20:38;;;;;;;3.42;1.70;;;21.80;99.90;;;;;;5025785;28;20040;-90
2022/06/20 09:23:12;;;;;;;4.20;2.05;;;21.60;99.90;;;;;;5040414;28;20037;-90
2022/06/20 09:25:37;;;;;;;5.07;1.90;;;21.70;99.90;;;;;;5026332;28;20065;-90
2022/06/20 09:28:38;;;;;;;9.38;1.63;;;21.70;99.90;;;;;;5032529;28;20048;-92
2022/06/20 09:31:48;;;;;;;3.80;1.85;;;22.70;99.90;;;;;;4993669;28;20049;-90
2022/06/20 09:34:32;;;;;;;3.30;1.48;;;23.00;99.90;;;;;;5032850;28;20051;-91
2022/06/20 09:37:01;;;;;;;4.80;1.65;;;22.30;99.90;;;;;;5043278;28;20040;-93
2022/06/20 09:39:39;;;;;;;3.30;1.30;;;21.80;99.90;;;;;;5027678;28;20041;-92
2022/06/20 09:42:11;;;;;;;3.97;1.50;;;21.60;99.90;;;;;;4995731;28;20037;-89
2022/06/20 09:44:43;;;;;;;5.07;1.73;;;21.40;99.90;;;;;;4994946;28;20087;-90
2022/06/20 09:47:21;;;;;;;4.85;1.65;;;20.90;99.90;;;;;;5052385;28;20037;-91
2022/06/20 09:50:00;;;;;;;4.15;1.70;;;20.10;99.90;;;;;;5038345;28;20053;-92
2022/06/20 09:52:49;;;;;;;13.40;3.60;;;19.90;99.90;;;;;;5038028;28;20050;-92
2022/06/20 09:55:19;;;;;;;6.70;1.85;;;20.80;99.90;;;;;;5013237;28;20090;-90
2022/06/20 09:57:57;;;;;;;3.13;1.70;;;21.50;99.90;;;;;;5027414;28;20037;-94
2022/06/20 10:00:33;;;;;;;3.38;1.40;;;21.80;99.90;;;;;;5034960;28;20101;-93
2022/06/20 10:03:44;;;;;;;4.72;1.60;;;22.50;99.90;;;;;;4987420;28;20091;-91
2022/06/20 10:06:12;;;;;;;4.50;1.40;;;22.50;99.90;;;;;;5016869;28;20105;-95
2022/06/20 10:08:55;;;;;;;2.40;1.20;;;21.80;99.80;;;;;;5038633;28;20056;-95
2022/06/20 10:11:34;;;;;;;3.50;1.37;;;22.10;99.80;;;;;;5028080;28;20036;-93
2022/06/20 10:14:15;;;;;;;3.42;1.27;;;21.70;99.90;;;;;;5038899;28;20040;-91
2022/06/20 10:16:56;;;;;;;3.33;1.67;;;21.40;99.90;;;;;;5040245;28;20131;-92
2022/06/20 10:19:34;;;;;;;5.97;1.55;;;20.70;99.90;;;;;;5007637;28;20408;-92
2022/06/20 10:22:28;;;;;;;5.75;1.83;;;21.70;99.90;;;;;;5006884;28;20056;-91
2022/06/20 10:25:18;;;;;;;18.65;3.25;;;21.80;99.90;;;;;;5054837;28;20106;-94
2022/06/20 10:28:04;;;;;;;4.97;1.77;;;23.10;99.90;;;;;;5038438;28;20110;-90
2022/06/20 10:30:36;;;;;;;8.13;1.77;;;22.70;99.50;;;;;;5042102;28;20040;-90
2022/06/20 10:33:39;;;;;;;6.47;1.65;;;23.30;99.70;;;;;;5030293;28;20048;-91
2022/06/20 10:36:13;;;;;;;4.20;1.65;;;23.60;99.90;;;;;;5045271;28;20037;-91
2022/06/20 10:38:43;;;;;;;5.28;1.50;;;22.60;99.00;;;;;;5022406;28;20052;-90
2022/06/20 10:41:23;;;;;;;6.50;1.52;;;22.60;99.90;;;;;;5021883;28;20511;-90
2022/06/20 10:43:53;;;;;;;5.47;1.88;;;23.00;99.80;;;;;;5044524;28;20065;-90
2022/06/20 10:46:31;;;;;;;4.95;1.40;;;22.90;99.40;;;;;;5033194;28;20040;-93
2022/06/20 10:49:11;;;;;;;2.42;1.40;;;23.10;99.90;;;;;;5003909;28;20049;-93
2022/06/20 10:51:52;;;;;;;3.22;1.33;;;23.90;99.60;;;;;;5046345;28;20045;-91
2022/06/20 10:54:45;;;;;;;9.20;2.10;;;22.00;99.90;;;;;;5030364;28;20048;-91
2022/06/20 10:57:29;;;;;;;8.63;1.52;;;22.20;99.90;;;;;;5028232;28;20155;-84
2022/06/20 11:00:03;;;;;;;5.88;1.40;;;22.60;99.10;;;;;;5043861;28;20910;-85
2022/06/20 11:03:14;;;;;;;2.80;1.45;;;22.70;99.00;;;;;;5017419;28;20106;-88
2022/06/20 11:05:47;;;;;;;5.32;1.50;;;21.80;99.30;;;;;;4957129;28;20054;-84
2022/06/20 11:08:15;;;;;;;4.80;1.80;;;21.80;99.90;;;;;;5013955;28;20059;-83
2022/06/20 11:11:21;;;;;;;5.13;1.45;;;22.40;99.90;;;;;;5054464;28;20136;-85
2022/06/20 11:14:14;;;;;;;8.38;1.45;;;23.00;99.50;;;;;;5027156;28;20048;-85
2022/06/20 11:16:54;;;;;;;5.47;1.50;;;22.20;99.20;;;;;;5024847;28;20037;-83
2022/06/20 11:19:32;;;;;;;3.85;1.40;;;21.50;99.90;;;;;;5028024;28;20060;-85
2022/06/20 11:22:25;;;;;;;11.05;1.77;;;21.50;99.90;;;;;;5015626;28;20041;-85
2022/06/20 11:25:09;;;;;;;9.45;1.75;;;22.10;99.90;;;;;;5040321;28;20068;-84
2022/06/20 11:27:57;;;;;;;6.13;1.35;;;22.10;99.90;;;;;;5062443;28;20563;-87
2022/06/20 11:30:41;;;;;;;8.95;1.60;;;20.60;99.50;;;;;;5020176;28;20053;-88
2022/06/20 11:33:06;;;;;;;4.57;1.60;;;21.50;99.90;;;;;;5016461;28;20097;-89
2022/06/20 11:35:49;;;;;;;2.45;1.60;;;21.40;99.90;;;;;;5033012;28;20089;-87
2022/06/20 11:38:33;;;;;;;10.05;2.22;;;21.00;99.90;;;;;;5018721;28;20142;-89
2022/06/20 11:41:10;;;;;;;6.22;1.65;;;20.80;99.90;;;;;;5036378;28;20049;-89
2022/06/20 11:44:06;;;;;;;15.10;2.28;;;20.80;99.90;;;;;;5003867;28;20041;-90
2022/06/20 11:47:17;;;;;;;3.60;1.70;;;20.80;99.90;;;;;;5026292;28;20048;-85
2022/06/20 11:50:15;;;;;;;5.70;1.60;;;21.70;99.90;;;;;;5046109;28;20114;-87
2022/06/20 11:52:44;;;;;;;8.13;1.88;;;21.00;99.90;;;;;;5020411;28;20070;-87
2022/06/20 11:55:25;;;;;;;7.43;2.20;;;20.50;99.90;;;;;;5019958;28;20053;-90
2022/06/20 11:58:08;;;;;;;6.53;2.00;;;20.00;99.90;;;;;;5004741;28;20097;-94
2022/06/20 12:00:54;;;;;;;4.75;2.03;;;20.30;99.90;;;;;;5013358;28;20080;-91
2022/06/20 12:03:40;;;;;;;4.25;1.58;;;20.00;99.90;;;;;;4999115;28;20489;-92
2022/06/20 12:06:14;;;;;;;5.72;2.35;;;20.50;99.90;;;;;;5031193;28;20095;-90
2022/06/20 12:08:55;;;;;;;4.50;1.55;;;20.20;99.90;;;;;;5042393;28;20051;-89
2022/06/20 12:11:30;;;;;;;3.70;1.50;;;20.00;99.90;;;;;;5045996;28;20041;-91
2022/06/20 12:14:17;;;;;;;7.72;2.00;;;20.00;99.90;;;;;;5041842;28;20487;-93
2022/06/20 12:17:04;;;;;;;5.43;1.85;;;20.60;99.90;;;;;;5040582;28;20049;-93
2022/06/20 12:25:28;;;;;;;4.97;1.63;;;20.60;99.90;;;;;;5025887;28;20103;-91
2022/06/20 12:27:54;;;;;;;5.47;2.28;;;20.10;99.90;;;;;;5036917;28;20099;-89
2022/06/20 12:30:20;;;;;;;7.30;1.90;;;20.40;99.90;;;;;;5000062;28;20057;-88
2022/06/20 12:32:47;;;;;;;4.00;1.65;;;20.20;99.90;;;;;;5027081;28;20049;-90
2022/06/20 12:35:28;;;;;;;6.55;1.77;;;20.80;99.90;;;;;;5013269;28;20090;-89
2022/06/20 12:38:02;;;;;;;5.13;1.85;;;21.10;99.90;;;;;;5041408;28;20489;-87
2022/06/20 12:40:33;;;;;;;5.07;2.03;;;21.60;99.90;;;;;;5005654;28;20103;-87
2022/06/20 12:43:10;;;;;;;3.97;1.80;;;20.90;99.90;;;;;;5020808;28;20059;-87
2022/06/20 12:46:07;;;;;;;7.55;2.15;;;21.00;99.90;;;;;;5040958;28;20090;-87
2022/06/20 12:48:49;;;;;;;5.65;1.95;;;21.60;99.90;;;;;;5034943;28;20041;-86
2022/06/20 12:51:42;;;;;;;3.45;1.70;;;21.10;99.90;;;;;;5059621;28;20041;-88
2022/06/20 12:54:35;;;;;;;7.05;1.95;;;21.20;99.90;;;;;;5053262;28;20112;-88
2022/06/20 12:57:09;;;;;;;3.73;1.63;;;21.00;99.90;;;;;;5037371;28;20124;-88
2022/06/20 13:00:04;;;;;;;15.10;2.20;;;20.90;99.90;;;;;;4995203;28;20053;-86
2022/06/20 13:03:14;;;;;;;7.00;1.60;;;21.20;99.90;;;;;;5029065;28;20045;-88
2022/06/20 13:05:52;;;;;;;6.82;1.63;;;20.70;99.90;;;;;;5019563;28;20056;-84
2022/06/20 13:08:27;;;;;;;2.65;1.70;;;21.40;99.90;;;;;;5040733;28;20041;-89
2022/06/20 13:11:26;;;;;;;5.40;1.48;;;20.90;99.90;;;;;;5044653;28;20060;-86
2022/06/20 13:14:26;;;;;;;2.97;1.60;;;21.00;99.60;;;;;;5036401;28;20081;-85
2022/06/20 13:16:51;;;;;;;3.92;1.45;;;20.50;99.60;;;;;;5046757;28;20050;-88
2022/06/20 13:19:35;;;;;;;2.70;1.52;;;20.60;99.90;;;;;;5041208;28;20033;-88
2022/06/20 13:22:28;;;;;;;2.90;1.35;;;20.40;99.90;;;;;;5041810;28;20494;-88
2022/06/20 13:25:03;;;;;;;6.50;1.73;;;20.50;99.90;;;;;;5023946;28;20515;-87
2022/06/20 13:27:35;;;;;;;5.40;1.92;;;20.50;99.90;;;;;;5023010;28;20052;-90
2022/06/20 13:30:10;;;;;;;3.20;1.60;;;20.30;99.90;;;;;;5022633;28;20124;-89
2022/06/20 13:32:48;;;;;;;2.00;1.45;;;20.20;99.90;;;;;;5040066;28;20067;-89
2022/06/20 13:35:31;;;;;;;3.55;1.65;;;19.80;99.90;;;;;;5040412;28;20049;-90
2022/06/20 13:38:25;;;;;;;9.63;2.03;;;20.20;99.90;;;;;;5010344;28;20480;-88
2022/06/20 13:41:00;;;;;;;;;;;20.40;99.90;;;;;;5003476;28;20048;-87
2022/06/20 13:44:03;;;;;;;2.78;1.60;;;20.20;99.90;;;;;;5030075;28;20002;-88
2022/06/20 13:46:35;;;;;;;5.82;1.70;;;20.20;99.90;;;;;;5043596;28;20120;-86